Time;durP1;ratioP1;P1;durP2;ratioP2;P2;SDS_P1;SDS_P2;PMS_P1;PMS_P2;Temp;Humidity;BMP_temperature;BMP_pressure;BME280_temperature;BME280_humidity;BME280_pressure;Samples;Min_cycle;Max_cycle;Signal;HPM_P1;HPM_P2
2022/05/28 00:00:53;;;;;;;14.00;8.52;;;;;;;;;;5077300;28;20024;-69
2022/05/28 00:03:20;;;;;;;13.57;9.07;;;;;;;;;;5074445;28;20490;-69
2022/05/28 00:05:46;;;;;;;16.70;9.18;;;;;;;;;;5074430;28;20035;-69
2022/05/28 00:08:12;;;;;;;16.38;8.18;;;;;;;;;;5073270;28;20036;-70
2022/05/28 00:10:39;;;;;;;17.52;7.25;;;;;;;;;;5072344;28;20032;-69
2022/05/28 00:13:05;;;;;;;13.77;6.45;;;;;;;;;;5070145;28;20032;-68
2022/05/28 00:15:31;;;;;;;19.33;6.72;;;;;;;;;;5070688;28;20031;-69
2022/05/28 00:17:59;;;;;;;18.08;6.82;;;;;;;;;;5069082;28;20040;-69
2022/05/28 00:20:25;;;;;;;15.88;7.00;;;;;;;;;;5070822;28;20427;-69
2022/05/28 00:22:51;;;;;;;16.83;7.30;;;;;;;;;;5070537;28;20036;-69
2022/05/28 00:25:18;;;;;;;14.38;7.00;;;;;;;;;;5072637;28;20049;-69
2022/05/28 00:27:44;;;;;;;15.23;6.63;;;;;;;;;;5074728;28;20099;-69
2022/05/28 00:30:12;;;;;;;13.52;6.40;;;;;;;;;;5070937;28;20040;-69
2022/05/28 00:32:40;;;;;;;14.70;6.20;;;;;;;;;;5078689;28;20016;-70
2022/05/28 00:35:08;;;;;;;14.77;5.72;;;;;;;;;;5072611;28;20035;-69
2022/05/28 00:37:34;;;;;;;16.55;4.90;;;;;;;;;;5073276;28;20026;-70
2022/05/28 00:40:08;;;;;;;21.02;6.20;;;;;;;;;;5073879;28;20039;-69
2022/05/28 00:42:35;;;;;;;12.50;6.05;;;;;;;;;;5072639;28;20652;-69
2022/05/28 00:45:01;;;;;;;15.63;5.88;;;;;;;;;;5070978;28;20036;-70
2022/05/28 00:47:28;;;;;;;16.45;6.05;;;;;;;;;;5079592;28;20024;-69
2022/05/28 00:49:54;;;;;;;13.30;5.35;;;;;;;;;;5076435;28;20081;-69
2022/05/28 00:52:22;;;;;;;14.10;7.00;;;;;;;;;;5075181;28;20030;-69
2022/05/28 00:54:49;;;;;;;18.33;7.18;;;;;;;;;;5077038;28;20516;-69
2022/05/28 00:57:16;;;;;;;21.75;8.70;;;;;;;;;;5076671;28;20029;-69
2022/05/28 00:59:43;;;;;;;17.35;8.32;;;;;;;;;;5074724;28;20412;-69
2022/05/28 01:02:19;;;;;;;16.10;8.88;;;;;;;;;;5083259;28;20460;-69
2022/05/28 01:04:51;;;;;;;25.20;9.93;;;;;;;;;;5075443;28;20440;-69
2022/05/28 01:07:32;;;;;;;24.52;9.20;;;;;;;;;;5077451;28;20564;-69
2022/05/28 01:10:17;;;;;;;19.83;8.85;;;;;;;;;;5075508;28;20036;-69
2022/05/28 01:12:55;;;;;;;19.95;8.85;;;;;;;;;;5076325;28;20472;-69
2022/05/28 01:15:24;;;;;;;19.60;9.50;;;;;;;;;;5081834;28;20240;-69
2022/05/28 01:17:55;;;;;;;14.48;7.95;;;;;;;;;;5073112;28;20013;-69
2022/05/28 01:20:23;;;;;;;16.67;7.72;;;;;;;;;;5078198;28;20024;-69
2022/05/28 01:22:52;;;;;;;16.52;7.95;;;;;;;;;;5079990;28;20016;-69
2022/05/28 01:25:18;;;;;;;14.30;7.22;;;;;;;;;;5078602;28;20032;-69
2022/05/28 01:27:47;;;;;;;13.88;6.25;;;;;;;;;;5074085;28;20488;-69
2022/05/28 01:30:14;;;;;;;17.70;6.72;;;;;;;;;;5077289;28;20055;-69
2022/05/28 01:32:41;;;;;;;10.82;6.38;;;;;;;;;;5076927;28;20033;-69
2022/05/28 01:35:09;;;;;;;13.15;6.10;;;;;;;;;;5076537;28;20031;-69
2022/05/28 01:37:36;;;;;;;16.15;5.65;;;;;;;;;;5076358;28;20078;-69
2022/05/28 01:40:03;;;;;;;15.90;4.68;;;;;;;;;;5076143;28;20021;-68
2022/05/28 01:42:30;;;;;;;14.75;5.97;;;;;;;;;;5078802;28;20484;-69
2022/05/28 01:44:56;;;;;;;14.10;6.45;;;;;;;;;;5073260;28;20016;-69
2022/05/28 01:47:23;;;;;;;14.10;6.50;;;;;;;;;;5070437;28;20086;-69
2022/05/28 01:49:49;;;;;;;11.35;5.65;;;;;;;;;;5074240;28;20037;-69
2022/05/28 01:52:16;;;;;;;14.18;6.35;;;;;;;;;;5076228;28;20058;-69
2022/05/28 01:54:44;;;;;;;14.20;6.10;;;;;;;;;;5073538;28;20024;-69
2022/05/28 01:57:11;;;;;;;15.35;6.90;;;;;;;;;;5075224;28;20445;-69
2022/05/28 01:59:38;;;;;;;17.38;6.00;;;;;;;;;;5077478;28;20035;-70
2022/05/28 02:02:06;;;;;;;15.75;5.78;;;;;;;;;;5076082;28;20066;-69
2022/05/28 02:04:33;;;;;;;12.40;5.22;;;;;;;;;;5074322;28;20081;-69
2022/05/28 02:07:02;;;;;;;13.30;6.38;;;;;;;;;;5076138;28;20025;-72
2022/05/28 02:09:48;;;;;;;11.65;5.95;;;;;;;;;;5074911;28;20039;-69
2022/05/28 02:12:15;;;;;;;13.18;6.68;;;;;;;;;;5077114;28;20028;-72
2022/05/28 02:14:59;;;;;;;11.40;7.90;;;;;;;;;;5070091;28;20039;-70
2022/05/28 02:17:39;;;;;;;17.80;9.82;;;;;;;;;;5068584;28;20716;-70
2022/05/28 02:20:25;;;;;;;15.43;8.82;;;;;;;;;;5070099;28;20554;-70
2022/05/28 02:22:58;;;;;;;16.15;9.02;;;;;;;;;;5073481;28;20044;-69
2022/05/28 02:25:32;;;;;;;15.43;9.05;;;;;;;;;;5070995;28;20125;-70
2022/05/28 02:27:58;;;;;;;20.15;10.93;;;;;;;;;;5071873;28;20416;-69
2022/05/28 02:30:25;;;;;;;19.38;9.52;;;;;;;;;;5076257;28;20075;-70
2022/05/28 02:32:58;;;;;;;14.57;9.02;;;;;;;;;;5074704;28;20020;-70
2022/05/28 02:35:24;;;;;;;17.02;7.40;;;;;;;;;;5070839;28;20024;-70
2022/05/28 02:37:50;;;;;;;13.85;8.40;;;;;;;;;;5068874;28;20149;-70
2022/05/28 02:40:17;;;;;;;12.38;8.10;;;;;;;;;;5070181;28;20029;-70
2022/05/28 02:42:44;;;;;;;18.38;7.55;;;;;;;;;;5069732;28;20031;-70
2022/05/28 02:45:10;;;;;;;17.67;7.68;;;;;;;;;;5069443;28;20055;-71
2022/05/28 02:47:37;;;;;;;16.33;7.70;;;;;;;;;;5068654;28;20037;-71
2022/05/28 02:50:03;;;;;;;13.48;8.52;;;;;;;;;;5063868;28;20040;-70
2022/05/28 02:52:29;;;;;;;13.70;7.60;;;;;;;;;;5069279;28;20028;-69
2022/05/28 02:54:55;;;;;;;13.10;8.38;;;;;;;;;;5063961;28;20464;-69
2022/05/28 02:57:21;;;;;;;17.83;9.00;;;;;;;;;;5070016;28;20036;-70
2022/05/28 02:59:47;;;;;;;14.65;7.68;;;;;;;;;;5069075;28;20036;-72
2022/05/28 03:02:14;;;;;;;13.88;7.00;;;;;;;;;;5071941;28;20047;-72
2022/05/28 03:04:40;;;;;;;15.73;8.10;;;;;;;;;;5071820;28;20475;-70
2022/05/28 03:07:06;;;;;;;12.40;8.10;;;;;;;;;;5069366;28;20032;-71
2022/05/28 03:09:33;;;;;;;15.93;8.32;;;;;;;;;;5071858;28;20570;-71
2022/05/28 03:11:59;;;;;;;19.98;9.43;;;;;;;;;;5065498;28;20124;-69
2022/05/28 03:14:25;;;;;;;16.45;7.90;;;;;;;;;;5079162;28;20119;-69
2022/05/28 03:16:52;;;;;;;15.32;7.63;;;;;;;;;;5067902;28;20153;-69
2022/05/28 03:19:18;;;;;;;16.27;7.65;;;;;;;;;;5074490;28;20035;-69
2022/05/28 03:21:45;;;;;;;12.77;7.28;;;;;;;;;;5082194;28;20527;-69
2022/05/28 03:24:11;;;;;;;13.88;7.18;;;;;;;;;;5082185;28;20040;-69
2022/05/28 03:26:37;;;;;;;13.90;6.75;;;;;;;;;;5079293;28;20027;-69
2022/05/28 03:29:04;;;;;;;19.67;7.60;;;;;;;;;;5077060;28;20039;-70
2022/05/28 03:31:30;;;;;;;14.80;6.75;;;;;;;;;;5080713;28;20048;-69
2022/05/28 03:33:57;;;;;;;11.55;6.53;;;;;;;;;;5080485;28;20482;-69
2022/05/28 03:36:24;;;;;;;14.98;6.88;;;;;;;;;;5082116;28;20020;-69
2022/05/28 03:38:50;;;;;;;14.77;6.82;;;;;;;;;;5082073;28;20592;-69
2022/05/28 03:41:17;;;;;;;18.55;7.80;;;;;;;;;;5082024;28;20578;-69
2022/05/28 03:43:43;;;;;;;17.40;6.90;;;;;;;;;;5080179;28;20453;-69
2022/05/28 03:46:20;;;;;;;14.38;6.10;;;;;;;;;;5082280;28;20524;-69
2022/05/28 03:48:46;;;;;;;16.38;6.38;;;;;;;;;;5077562;28;20066;-70
2022/05/28 03:51:12;;;;;;;11.38;6.75;;;;;;;;;;5079704;28;20032;-71
2022/05/28 03:53:38;;;;;;;15.98;6.75;;;;;;;;;;5079390;28;20035;-71
2022/05/28 03:56:05;;;;;;;19.38;7.10;;;;;;;;;;5076501;28;20077;-70
2022/05/28 03:58:31;;;;;;;21.58;6.78;;;;;;;;;;5071296;28;20031;-75
2022/05/28 04:00:57;;;;;;;11.15;5.93;;;;;;;;;;5079319;28;20507;-70
2022/05/28 04:03:23;;;;;;;13.50;5.93;;;;;;;;;;5079555;28;20032;-69
2022/05/28 04:05:50;;;;;;;15.60;6.43;;;;;;;;;;5077954;28;20035;-70
2022/05/28 04:08:16;;;;;;;12.38;5.93;;;;;;;;;;5079148;28;20034;-70
2022/05/28 04:10:42;;;;;;;17.58;6.85;;;;;;;;;;5079496;28;20528;-69
2022/05/28 04:13:09;;;;;;;13.90;7.10;;;;;;;;;;5079011;28;20036;-70
2022/05/28 04:15:35;;;;;;;17.55;6.47;;;;;;;;;;5077723;28;20031;-73
2022/05/28 04:18:01;;;;;;;18.30;7.07;;;;;;;;;;5064725;28;20103;-72
2022/05/28 04:20:27;;;;;;;15.80;6.95;;;;;;;;;;5081201;28;20107;-70
2022/05/28 04:22:53;;;;;;;17.73;8.63;;;;;;;;;;5083655;28;20635;-69
2022/05/28 04:25:19;;;;;;;21.17;10.32;;;;;;;;;;5079736;28;20063;-69
2022/05/28 04:27:45;;;;;;;16.15;9.45;;;;;;;;;;5081894;28;20070;-74
2022/05/28 04:30:12;;;;;;;19.95;9.98;;;;;;;;;;5083400;28;20519;-75
2022/05/28 04:32:38;;;;;;;21.45;11.02;;;;;;;;;;5083471;28;20027;-69
2022/05/28 04:35:04;;;;;;;17.48;10.10;;;;;;;;;;5082688;28;20024;-72
2022/05/28 04:37:30;;;;;;;20.77;9.32;;;;;;;;;;5083275;28;20256;-70
2022/05/28 04:39:57;;;;;;;20.25;8.57;;;;;;;;;;5081471;28;20055;-72
2022/05/28 04:42:23;;;;;;;17.20;8.80;;;;;;;;;;5083159;28;20028;-71
2022/05/28 04:44:49;;;;;;;15.43;7.88;;;;;;;;;;5081872;28;20027;-72
2022/05/28 04:47:15;;;;;;;21.52;8.77;;;;;;;;;;5081507;28;20032;-73
2022/05/28 04:49:41;;;;;;;18.92;7.95;;;;;;;;;;5081201;28;20798;-71
2022/05/28 04:52:08;;;;;;;16.23;7.53;;;;;;;;;;5082941;28;20058;-70
2022/05/28 04:54:34;;;;;;;22.73;8.95;;;;;;;;;;5082924;28;20149;-71
2022/05/28 04:57:00;;;;;;;18.25;8.70;;;;;;;;;;5083001;28;20074;-70
2022/05/28 04:59:26;;;;;;;22.55;9.07;;;;;;;;;;5082624;28;20046;-70
2022/05/28 05:01:52;;;;;;;22.08;9.93;;;;;;;;;;5080789;28;20447;-71
2022/05/28 05:04:19;;;;;;;20.17;8.48;;;;;;;;;;5081460;28;20028;-70
2022/05/28 05:06:45;;;;;;;25.67;8.90;;;;;;;;;;5083043;28;20020;-70
2022/05/28 05:09:11;;;;;;;17.27;8.63;;;;;;;;;;5082652;28;20032;-70
2022/05/28 05:11:37;;;;;;;19.73;8.90;;;;;;;;;;5082484;28;20035;-70
2022/05/28 05:14:03;;;;;;;14.07;7.68;;;;;;;;;;5081646;28;20012;-72
2022/05/28 05:16:29;;;;;;;14.80;7.90;;;;;;;;;;5076643;28;20096;-70
2022/05/28 05:18:55;;;;;;;16.00;7.72;;;;;;;;;;5066822;28;20032;-76
2022/05/28 05:21:21;;;;;;;17.35;8.40;;;;;;;;;;5080765;28;20020;-70
2022/05/28 05:23:48;;;;;;;12.35;6.75;;;;;;;;;;5082121;28;20028;-70
2022/05/28 05:26:18;;;;;;;18.33;7.50;;;;;;;;;;5081353;28;20424;-70
2022/05/28 05:28:45;;;;;;;12.10;6.95;;;;;;;;;;5082296;28;20032;-70
2022/05/28 05:31:11;;;;;;;15.15;7.88;;;;;;;;;;5082362;28;20143;-70
2022/05/28 05:33:37;;;;;;;14.85;6.80;;;;;;;;;;5082293;28;20016;-71
2022/05/28 05:36:04;;;;;;;13.57;6.32;;;;;;;;;;5080051;28;20048;-72
2022/05/28 05:38:30;;;;;;;13.55;6.97;;;;;;;;;;5082038;28;20617;-71
2022/05/28 05:40:56;;;;;;;17.00;7.03;;;;;;;;;;5081885;28;20028;-71
2022/05/28 05:43:22;;;;;;;12.75;5.93;;;;;;;;;;5082476;28;20042;-71
2022/05/28 05:45:59;;;;;;;9.82;4.80;;;;;;;;;;5081734;28;20051;-71
2022/05/28 05:48:25;;;;;;;11.43;6.70;;;;;;;;;;5081702;28;20055;-69
2022/05/28 05:50:52;;;;;;;11.55;4.72;;;;;;;;;;5068978;28;20036;-69
2022/05/28 05:53:18;;;;;;;11.38;4.63;;;;;;;;;;5075153;28;20028;-70
2022/05/28 05:55:44;;;;;;;7.95;3.75;;;;;;;;;;5079479;28;20123;-72
2022/05/28 05:58:11;;;;;;;9.07;4.35;;;;;;;;;;5081744;28;20020;-69
2022/05/28 06:00:37;;;;;;;7.95;4.45;;;;;;;;;;5083777;28;20582;-71
2022/05/28 06:03:04;;;;;;;22.08;5.10;;;;;;;;;;5083919;28;20070;-70
2022/05/28 06:05:30;;;;;;;15.35;4.13;;;;;;;;;;5083266;28;20032;-70
2022/05/28 06:07:56;;;;;;;7.68;3.67;;;;;;;;;;5083727;28;20046;-70
2022/05/28 06:10:23;;;;;;;6.10;3.30;;;;;;;;;;5080640;28;20749;-70
2022/05/28 06:12:49;;;;;;;13.68;4.18;;;;;;;;;;5080214;28;21029;-72
2022/05/28 06:15:15;;;;;;;9.00;3.90;;;;;;;;;;5080986;28;20024;-72
2022/05/28 06:17:41;;;;;;;7.38;3.75;;;;;;;;;;5072530;28;20020;-72
2022/05/28 06:20:09;;;;;;;6.90;3.13;;;;;;;;;;5072418;28;20608;-72
2022/05/28 06:22:35;;;;;;;7.38;3.17;;;;;;;;;;5082017;28;20057;-72
2022/05/28 06:25:01;;;;;;;8.02;3.15;;;;;;;;;;5083161;28;20032;-74
2022/05/28 06:27:27;;;;;;;8.15;3.50;;;;;;;;;;5083210;28;20468;-72
2022/05/28 06:29:53;;;;;;;8.25;3.45;;;;;;;;;;5083054;28;20036;-73
2022/05/28 06:32:20;;;;;;;8.30;3.28;;;;;;;;;;5083558;28;20084;-72
2022/05/28 06:34:46;;;;;;;10.85;3.80;;;;;;;;;;5082259;28;20464;-72
2022/05/28 06:37:13;;;;;;;10.63;3.63;;;;;;;;;;5083035;28;20028;-73
2022/05/28 06:39:39;;;;;;;10.15;4.55;;;;;;;;;;5082949;28;20024;-72
2022/05/28 06:42:06;;;;;;;10.25;4.25;;;;;;;;;;5081979;28;20024;-72
2022/05/28 06:44:33;;;;;;;7.82;4.03;;;;;;;;;;5083031;28;20569;-72
2022/05/28 06:46:59;;;;;;;11.40;4.18;;;;;;;;;;5083071;28;20028;-71
2022/05/28 06:49:25;;;;;;;6.20;3.30;;;;;;;;;;5080248;28;20042;-72
2022/05/28 06:51:52;;;;;;;7.93;3.22;;;;;;;;;;5083358;28;20016;-72
2022/05/28 06:54:18;;;;;;;6.65;3.20;;;;;;;;;;5081344;28;20024;-74
2022/05/28 06:56:44;;;;;;;12.65;4.65;;;;;;;;;;5082835;28;20414;-72
2022/05/28 06:59:10;;;;;;;8.00;3.75;;;;;;;;;;5083036;28;20024;-73
2022/05/28 07:01:37;;;;;;;12.82;4.68;;;;;;;;;;5081245;28;20028;-72
2022/05/28 07:04:04;;;;;;;5.15;3.17;;;;;;;;;;5082569;28;20035;-72
2022/05/28 07:06:31;;;;;;;7.55;3.63;;;;;;;;;;5082838;28;20056;-72
2022/05/28 07:08:58;;;;;;;7.60;3.25;;;;;;;;;;5082790;28;20040;-73
2022/05/28 07:11:24;;;;;;;8.55;3.30;;;;;;;;;;5082719;28;20056;-72
2022/05/28 07:13:50;;;;;;;7.72;3.63;;;;;;;;;;5081739;28;20072;-72
2022/05/28 07:16:16;;;;;;;7.10;3.70;;;;;;;;;;5080958;28;20031;-71
2022/05/28 07:18:42;;;;;;;8.38;3.42;;;;;;;;;;5068942;28;20043;-72
2022/05/28 07:21:10;;;;;;;9.93;3.35;;;;;;;;;;5083228;28;20050;-71
2022/05/28 07:23:36;;;;;;;6.65;3.63;;;;;;;;;;5082534;28;20066;-72
2022/05/28 07:26:04;;;;;;;8.38;3.70;;;;;;;;;;5080826;28;20055;-72
2022/05/28 07:28:33;;;;;;;9.15;3.40;;;;;;;;;;5082269;28;20495;-72
2022/05/28 07:31:00;;;;;;;8.25;3.45;;;;;;;;;;5082577;28;20423;-73
2022/05/28 07:33:28;;;;;;;6.70;3.47;;;;;;;;;;5080767;28;20115;-72
2022/05/28 07:35:54;;;;;;;11.55;4.40;;;;;;;;;;5082107;28;20020;-72
2022/05/28 07:38:21;;;;;;;7.90;3.95;;;;;;;;;;5081274;28;20565;-72
2022/05/28 07:40:47;;;;;;;8.15;3.88;;;;;;;;;;5082416;28;20039;-74
2022/05/28 07:43:14;;;;;;;8.50;3.95;;;;;;;;;;5081122;28;20020;-72
2022/05/28 07:45:42;;;;;;;7.28;3.03;;;;;;;;;;5081208;28;20077;-72
2022/05/28 07:48:08;;;;;;;8.13;3.38;;;;;;;;;;5080233;28;20782;-73
2022/05/28 07:50:35;;;;;;;7.82;3.50;;;;;;;;;;5078903;28;20122;-73
2022/05/28 07:53:01;;;;;;;8.85;3.30;;;;;;;;;;5081726;28;20107;-77
2022/05/28 07:55:28;;;;;;;7.95;3.35;;;;;;;;;;5082366;28;20083;-72
2022/05/28 07:57:54;;;;;;;5.57;3.03;;;;;;;;;;5079442;28;20482;-71
2022/05/28 08:00:21;;;;;;;9.30;3.10;;;;;;;;;;5082117;28;20028;-72
2022/05/28 08:02:47;;;;;;;7.93;3.15;;;;;;;;;;5080530;28;20030;-71
2022/05/28 08:05:13;;;;;;;9.10;2.92;;;;;;;;;;5080654;28;20059;-72
2022/05/28 08:07:40;;;;;;;27.45;4.82;;;;;;;;;;5079981;28;20047;-72
2022/05/28 08:10:06;;;;;;;8.88;3.65;;;;;;;;;;5080315;28;20119;-72
2022/05/28 08:12:32;;;;;;;7.82;3.35;;;;;;;;;;5081886;28;20516;-72
2022/05/28 08:14:58;;;;;;;5.63;2.90;;;;;;;;;;5082235;28;20079;-72
2022/05/28 08:17:25;;;;;;;7.72;3.53;;;;;;;;;;5070717;28;20241;-72
2022/05/28 08:19:51;;;;;;;7.65;3.03;;;;;;;;;;5075890;28;20028;-71
2022/05/28 08:25:03;;;;;;;7.53;2.72;;;;;;;;;;5081666;28;20453;-71
2022/05/28 08:27:30;;;;;;;6.15;2.70;;;;;;;;;;5080791;28;20032;-71
2022/05/28 08:29:56;;;;;;;4.72;2.72;;;;;;;;;;5081758;28;20032;-72
2022/05/28 08:32:22;;;;;;;8.70;3.47;;;;;;;;;;5078590;28;20063;-71
2022/05/28 08:34:48;;;;;;;7.60;2.85;;;;;;;;;;5081801;28;20453;-71
2022/05/28 08:37:14;;;;;;;6.32;2.42;;;;;;;;;;5080333;28;20020;-71
2022/05/28 08:39:41;;;;;;;4.63;2.53;;;;;;;;;;5080363;28;20096;-72
2022/05/28 08:42:10;;;;;;;5.75;3.28;;;;;;;;;;5081165;28;20100;-72
2022/05/28 08:44:39;;;;;;;7.53;2.88;;;;;;;;;;5078930;28;20036;-72
2022/05/28 08:47:05;;;;;;;4.50;2.40;;;;;;;;;;5081416;28;20047;-72
2022/05/28 08:49:32;;;;;;;5.88;2.58;;;;;;;;;;5081874;28;20040;-71
2022/05/28 08:52:07;;;;;;;6.53;3.03;;;;;;;;;;5081693;28;20075;-71
2022/05/28 08:54:36;;;;;;;6.38;2.80;;;;;;;;;;5068861;28;20521;-71
2022/05/28 08:57:04;;;;;;;5.05;2.90;;;;;;;;;;5081589;28;20616;-71
2022/05/28 08:59:40;;;;;;;7.45;2.78;;;;;;;;;;5080195;28;20027;-71
2022/05/28 09:02:12;;;;;;;4.88;2.42;;;;;;;;;;5081436;28;20028;-71
2022/05/28 09:04:40;;;;;;;7.53;3.05;;;;;;;;;;5081772;28;20031;-71
2022/05/28 09:07:10;;;;;;;5.75;2.75;;;;;;;;;;5084958;28;20476;-71
2022/05/28 09:09:41;;;;;;;10.55;3.35;;;;;;;;;;5085207;28;20176;-73
2022/05/28 09:12:09;;;;;;;4.82;2.97;;;;;;;;;;5083950;28;20485;-71
2022/05/28 09:14:37;;;;;;;12.00;3.83;;;;;;;;;;5085382;28;20376;-71
2022/05/28 09:17:26;;;;;;;12.23;4.32;;;;;;;;;;5075885;28;20107;-73
2022/05/28 09:19:57;;;;;;;9.88;4.60;;;;;;;;;;5078709;28;20504;-78
2022/05/28 09:22:24;;;;;;;8.57;3.40;;;;;;;;;;5079406;28;20042;-74
2022/05/28 09:24:50;;;;;;;8.32;3.58;;;;;;;;;;5077682;28;20051;-75
2022/05/28 09:27:22;;;;;;;6.78;3.15;;;;;;;;;;5076463;28;20102;-77
2022/05/28 09:29:55;;;;;;;7.10;2.90;;;;;;;;;;5072615;28;20028;-74
2022/05/28 09:32:21;;;;;;;7.10;3.53;;;;;;;;;;5070825;28;20111;-74
2022/05/28 09:34:50;;;;;;;10.63;2.85;;;;;;;;;;5082228;28;20028;-75
2022/05/28 09:37:33;;;;;;;7.20;3.03;;;;;;;;;;5078008;28;20036;-75
2022/05/28 09:40:02;;;;;;;7.25;3.13;;;;;;;;;;5079572;28;20020;-74
2022/05/28 09:42:34;;;;;;;10.95;3.50;;;;;;;;;;5082537;28;20204;-73
2022/05/28 09:45:19;;;;;;;7.53;3.03;;;;;;;;;;5077307;28;20012;-73
2022/05/28 09:47:49;;;;;;;4.65;2.80;;;;;;;;;;5070988;28;20028;-72
2022/05/28 09:50:21;;;;;;;8.68;3.33;;;;;;;;;;5077008;28;20419;-76
2022/05/28 09:55:41;;;;;;;8.15;3.42;;;;;;;;;;5083804;28;20078;-75
2022/05/28 09:58:07;;;;;;;5.28;3.08;;;;;;;;;;5082671;28;20031;-75
2022/05/28 10:00:33;;;;;;;6.60;3.00;;;;;;;;;;5083497;28;20384;-74
2022/05/28 10:05:54;;;;;;;6.00;2.67;;;;;;;;;;5080237;28;20047;-76
2022/05/28 10:08:20;;;;;;;10.80;2.78;;;;;;;;;;5081879;28;20468;-76
2022/05/28 10:10:54;;;;;;;12.13;3.40;;;;;;;;;;5071644;28;20039;-73
2022/05/28 10:13:24;;;;;;;3.90;2.67;;;;;;;;;;5071751;28;20076;-74
2022/05/28 10:15:53;;;;;;;9.90;3.00;;;;;;;;;;5069221;28;20027;-73
2022/05/28 10:18:42;;;;;;;7.28;2.50;;;;;;;;;;5068640;28;20650;-77
2022/05/28 10:21:19;;;;;;;6.95;3.33;;;;;;;;;;5068403;28;20040;-77
2022/05/28 10:23:51;;;;;;;7.68;2.58;;;;;;;;;;5076410;28;20028;-78
2022/05/28 10:26:30;;;;;;;5.53;2.58;;;;;;;;;;5077811;28;20066;-78
2022/05/28 10:29:01;;;;;;;7.40;3.17;;;;;;;;;;5073148;28;20081;-77
2022/05/28 10:31:32;;;;;;;8.00;3.47;;;;;;;;;;5072703;28;20035;-77
2022/05/28 10:33:59;;;;;;;6.53;3.25;;;;;;;;;;5076618;28;20031;-78
2022/05/28 10:36:29;;;;;;;6.07;3.10;;;;;;;;;;5078608;28;20515;-77
2022/05/28 10:39:06;;;;;;;3.83;2.63;;;;;;;;;;5078402;28;20023;-77
2022/05/28 10:41:33;;;;;;;9.27;2.97;;;;;;;;;;5078591;28;20032;-77
2022/05/28 10:43:59;;;;;;;8.90;3.42;;;;;;;;;;5071791;28;20026;-77
2022/05/28 10:46:35;;;;;;;24.73;5.30;;;;;;;;;;5079259;28;20096;-73
2022/05/28 10:49:05;;;;;;;12.90;4.68;;;;;;;;;;5064048;28;20016;-73
2022/05/28 10:51:37;;;;;;;7.00;4.13;;;;;;;;;;5075431;28;20036;-74
2022/05/28 10:54:09;;;;;;;7.55;3.50;;;;;;;;;;5067225;28;20029;-73
2022/05/28 10:56:50;;;;;;;9.50;3.53;;;;;;;;;;5075739;28;20498;-73
2022/05/28 10:59:23;;;;;;;7.13;3.28;;;;;;;;;;5068790;28;20032;-74
2022/05/28 11:02:02;;;;;;;7.95;3.80;;;;;;;;;;5073548;28;20036;-73
2022/05/28 11:04:31;;;;;;;14.07;4.47;;;;;;;;;;5078342;28;20063;-73
2022/05/28 11:07:13;;;;;;;7.90;3.92;;;;;;;;;;5070367;28;20036;-73
2022/05/28 11:10:02;;;;;;;10.05;3.80;;;;;;;;;;5068481;28;20028;-74
2022/05/28 11:12:31;;;;;;;6.55;3.60;;;;;;;;;;5066035;28;20567;-74
2022/05/28 11:15:00;;;;;;;9.15;3.55;;;;;;;;;;5071556;28;20427;-74
2022/05/28 11:17:46;;;;;;;7.78;4.15;;;;;;;;;;5061407;28;20099;-74
2022/05/28 11:20:12;;;;;;;15.55;6.72;;;;;;;;;;5068299;28;20028;-74
2022/05/28 11:22:45;;;;;;;28.52;8.15;;;;;;;;;;5064734;28;20038;-73
2022/05/28 11:25:11;;;;;;;21.63;7.53;;;;;;;;;;5077851;28;20058;-74
2022/05/28 11:27:56;;;;;;;15.70;6.57;;;;;;;;;;5075227;28;20028;-74
2022/05/28 11:30:23;;;;;;;20.23;6.90;;;;;;;;;;5077881;28;20036;-74
2022/05/28 11:33:04;;;;;;;15.80;6.78;;;;;;;;;;5078045;28;20039;-74
2022/05/28 11:35:37;;;;;;;16.98;6.35;;;;;;;;;;5074784;28;20024;-73
2022/05/28 11:38:15;;;;;;;9.95;5.57;;;;;;;;;;5078018;28;20526;-73
2022/05/28 11:41:00;;;;;;;13.25;5.60;;;;;;;;;;5079707;28;20054;-74
2022/05/28 11:43:40;;;;;;;10.82;5.25;;;;;;;;;;5079709;28;20036;-73
2022/05/28 11:46:25;;;;;;;11.68;5.63;;;;;;;;;;5073880;28;20815;-74
2022/05/28 11:51:44;;;;;;;9.70;4.93;;;;;;;;;;5067411;28;20455;-73
2022/05/28 11:54:14;;;;;;;9.73;5.82;;;;;;;;;;5070121;28;20032;-74
2022/05/28 11:56:40;;;;;;;13.02;5.30;;;;;;;;;;5076134;28;20046;-73
2022/05/28 11:59:06;;;;;;;9.25;4.47;;;;;;;;;;5080481;28;20028;-74
2022/05/28 12:01:37;;;;;;;9.80;4.90;;;;;;;;;;5076814;28;20107;-74
2022/05/28 12:04:06;;;;;;;10.75;6.72;;;;;;;;;;5066179;28;20039;-74
2022/05/28 12:06:35;;;;;;;8.15;6.28;;;;;;;;;;5077948;28;20020;-75
2022/05/28 12:09:04;;;;;;;11.52;5.35;;;;;;;;;;5078920;28;20097;-74
2022/05/28 12:11:36;;;;;;;10.15;5.20;;;;;;;;;;5079169;28;20135;-74
2022/05/28 12:14:07;;;;;;;12.48;4.97;;;;;;;;;;5082762;28;20103;-74
2022/05/28 12:16:41;;;;;;;11.50;5.25;;;;;;;;;;5066144;28;20035;-73
2022/05/28 12:19:07;;;;;;;9.38;6.05;;;;;;;;;;5061331;28;20017;-73
2022/05/28 12:21:35;;;;;;;9.98;5.57;;;;;;;;;;5076849;28;20035;-77
2022/05/28 12:24:07;;;;;;;9.43;5.47;;;;;;;;;;5081718;28;20118;-77
2022/05/28 12:26:48;;;;;;;11.85;5.93;;;;;;;;;;5082174;28;20031;-79
2022/05/28 12:29:43;;;;;;;10.25;6.38;;;;;;;;;;5080204;28;20111;-80
2022/05/28 12:32:30;;;;;;;8.68;5.40;;;;;;;;;;5081802;28;20059;-79
2022/05/28 12:34:59;;;;;;;9.57;4.97;;;;;;;;;;5083967;28;20032;-79
2022/05/28 12:37:39;;;;;;;8.70;4.50;;;;;;;;;;5070078;28;20027;-75
2022/05/28 12:40:21;;;;;;;7.78;4.28;;;;;;;;;;5083807;28;20021;-78
2022/05/28 12:42:48;;;;;;;6.95;3.95;;;;;;;;;;5085533;28;20030;-77
2022/05/28 12:45:17;;;;;;;8.52;4.80;;;;;;;;;;5073510;28;20052;-74
2022/05/28 12:47:44;;;;;;;6.47;5.65;;;;;;;;;;5085375;28;20036;-76
2022/05/28 12:50:13;;;;;;;9.50;5.47;;;;;;;;;;5082652;28;20036;-74
2022/05/28 12:52:53;;;;;;;9.70;5.25;;;;;;;;;;5077779;28;20035;-75
2022/05/28 12:55:36;;;;;;;7.38;4.32;;;;;;;;;;5080641;28;20029;-75
2022/05/28 12:58:11;;;;;;;11.15;5.47;;;;;;;;;;5072751;28;20554;-75
2022/05/28 13:00:47;;;;;;;9.02;5.32;;;;;;;;;;5076970;28;20037;-84
2022/05/28 13:03:15;;;;;;;7.80;4.97;;;;;;;;;;5075573;28;20020;-76
2022/05/28 13:05:44;;;;;;;9.82;5.00;;;;;;;;;;5086836;28;20019;-75
2022/05/28 13:08:12;;;;;;;12.75;5.07;;;;;;;;;;5087196;28;20022;-74
2022/05/28 13:10:44;;;;;;;7.32;4.45;;;;;;;;;;5085492;28;20082;-74
2022/05/28 13:13:16;;;;;;;6.70;4.93;;;;;;;;;;5083336;28;20499;-75
2022/05/28 13:15:49;;;;;;;8.88;5.55;;;;;;;;;;5083192;28;20032;-74
2022/05/28 13:18:21;;;;;;;12.25;6.00;;;;;;;;;;5076034;28;20778;-75
2022/05/28 13:20:50;;;;;;;8.60;5.32;;;;;;;;;;5075888;28;20047;-75
2022/05/28 13:23:20;;;;;;;8.05;5.50;;;;;;;;;;5073379;28;20035;-73
2022/05/28 13:25:49;;;;;;;6.93;4.25;;;;;;;;;;5083743;28;20086;-74
2022/05/28 13:28:28;;;;;;;6.38;3.80;;;;;;;;;;5084136;28;20020;-74
2022/05/28 13:31:00;;;;;;;11.13;5.13;;;;;;;;;;5077899;28;20532;-76
2022/05/28 13:33:31;;;;;;;11.30;5.72;;;;;;;;;;5070702;28;20476;-76
2022/05/28 13:35:58;;;;;;;10.68;5.18;;;;;;;;;;5071789;28;20020;-76
2022/05/28 13:38:29;;;;;;;12.48;5.20;;;;;;;;;;5081569;28;20190;-76
2022/05/28 13:40:56;;;;;;;7.33;4.93;;;;;;;;;;5064231;28;20031;-78
2022/05/28 13:43:25;;;;;;;8.90;4.53;;;;;;;;;;5066234;28;20582;-76
2022/05/28 13:45:51;;;;;;;8.65;4.15;;;;;;;;;;5065684;28;20716;-77
2022/05/28 13:48:22;;;;;;;8.00;4.50;;;;;;;;;;5067228;28;20581;-76
2022/05/28 13:50:49;;;;;;;12.10;6.28;;;;;;;;;;5064777;28;20465;-77
2022/05/28 13:53:20;;;;;;;14.40;5.78;;;;;;;;;;5070598;28;20035;-76
2022/05/28 13:55:46;;;;;;;6.28;4.32;;;;;;;;;;5065845;28;20568;-76
2022/05/28 13:58:23;;;;;;;8.00;4.38;;;;;;;;;;5066138;28;20086;-74
2022/05/28 14:00:55;;;;;;;8.23;5.03;;;;;;;;;;5068341;28;20043;-74
2022/05/28 14:03:25;;;;;;;12.20;4.40;;;;;;;;;;5067216;28;20402;-74
2022/05/28 14:05:52;;;;;;;7.63;4.25;;;;;;;;;;5066281;28;20119;-75
2022/05/28 14:08:23;;;;;;;6.90;4.63;;;;;;;;;;5070639;28;20089;-74
2022/05/28 14:10:52;;;;;;;9.85;4.30;;;;;;;;;;5067620;28;20098;-74
2022/05/28 14:13:25;;;;;;;7.82;4.57;;;;;;;;;;5069145;28;20026;-75
2022/05/28 14:15:52;;;;;;;6.95;4.50;;;;;;;;;;5083506;28;20068;-75
2022/05/28 14:18:20;;;;;;;6.25;4.93;;;;;;;;;;5066901;28;20024;-74
2022/05/28 14:20:46;;;;;;;7.00;4.85;;;;;;;;;;5075289;28;20404;-74
2022/05/28 14:23:13;;;;;;;7.70;4.88;;;;;;;;;;5070832;28;20028;-74
2022/05/28 14:25:40;;;;;;;7.47;4.88;;;;;;;;;;5070781;28;20097;-75
2022/05/28 14:28:09;;;;;;;10.38;5.18;;;;;;;;;;5085540;28;20051;-76
2022/05/28 14:30:37;;;;;;;7.40;5.35;;;;;;;;;;5082169;28;20028;-78
2022/05/28 14:33:05;;;;;;;9.68;4.93;;;;;;;;;;5080507;28;20039;-77
2022/05/28 14:35:42;;;;;;;8.45;5.20;;;;;;;;;;5071934;28;20035;-77
2022/05/28 14:38:09;;;;;;;8.43;5.63;;;;;;;;;;5073116;28;20020;-75
2022/05/28 14:40:36;;;;;;;10.15;5.45;;;;;;;;;;5077280;28;20410;-75
2022/05/28 14:43:04;;;;;;;13.05;6.18;;;;;;;;;;5070572;28;20029;-77
2022/05/28 14:45:40;;;;;;;11.55;5.38;;;;;;;;;;5081649;28;20047;-77
2022/05/28 14:48:07;;;;;;;7.07;4.80;;;;;;;;;;5082553;28;20111;-76
2022/05/28 14:50:48;;;;;;;12.70;5.85;;;;;;;;;;5078457;28;20462;-75
2022/05/28 14:53:25;;;;;;;14.27;5.50;;;;;;;;;;5077296;28;20162;-75
2022/05/28 14:55:52;;;;;;;14.60;5.75;;;;;;;;;;5084324;28;20020;-74
2022/05/28 14:58:20;;;;;;;9.85;4.90;;;;;;;;;;5084923;28;20028;-75